createdAt,value
2017-06-04T00:02:00.363Z,22.10
2017-06-04T00:04:28.947Z,21.30
2017-06-04T00:06:57.148Z,22.10
2017-06-04T00:09:25.391Z,21.80
2017-06-04T00:11:53.616Z,22.50
2017-06-04T00:14:21.813Z,22.67
2017-06-04T00:16:50.431Z,24.93
2017-06-04T00:19:19.391Z,23.93
2017-06-04T00:21:47.575Z,22.13
2017-06-04T00:24:15.785Z,22.43
2017-06-04T00:26:44.772Z,25.30
2017-06-04T00:29:13.471Z,26.40
2017-06-04T00:31:41.650Z,25.33
2017-06-04T00:34:09.819Z,25.10
2017-06-04T00:36:38.005Z,26.17
2017-06-04T00:39:06.199Z,29.70
2017-06-04T00:41:34.705Z,24.23
2017-06-04T00:44:02.878Z,26.57
2017-06-04T00:46:31.067Z,23.20
2017-06-04T00:48:59.283Z,24.97
2017-06-04T00:51:27.462Z,25.07
2017-06-04T00:53:56.080Z,26.13
2017-06-04T00:56:24.274Z,28.00
2017-06-04T00:58:53.226Z,27.73
2017-06-04T01:01:21.443Z,27.53
2017-06-04T01:03:50.413Z,27.27
2017-06-04T01:06:18.987Z,27.30
2017-06-04T01:08:47.164Z,34.67
2017-06-04T01:11:15.359Z,31.80
2017-06-04T01:13:44.347Z,38.57
2017-06-04T01:16:13.316Z,43.70
2017-06-04T01:18:41.902Z,49.83
2017-06-04T01:21:10.144Z,45.30
2017-06-04T01:23:38.313Z,53.77
2017-06-04T01:26:06.530Z,50.10
2017-06-04T01:28:34.799Z,58.53
2017-06-04T01:31:03.485Z,66.23
2017-06-04T01:33:31.667Z,81.93
2017-06-04T01:35:59.882Z,70.30
2017-06-04T01:38:28.112Z,78.23
2017-06-04T01:40:56.299Z,67.37
2017-06-04T01:43:24.855Z,62.90
2017-06-04T01:45:53.030Z,62.17
2017-06-04T01:48:21.220Z,62.87
2017-06-04T01:50:49.427Z,67.77
2017-06-04T01:53:17.651Z,62.00
2017-06-04T01:55:46.240Z,62.70
2017-06-04T01:58:14.428Z,72.60
2017-06-04T02:00:42.623Z,60.20
2017-06-04T02:03:10.845Z,61.70
2017-06-04T02:05:39.034Z,72.00
2017-06-04T02:08:07.636Z,63.37
2017-06-04T02:10:36.585Z,66.53
2017-06-04T02:13:04.780Z,57.37
2017-06-04T02:15:33.073Z,62.50
2017-06-04T02:18:01.254Z,62.40
2017-06-04T02:20:30.641Z,56.20
2017-06-04T02:22:58.922Z,70.33
2017-06-04T02:25:27.135Z,75.20
2017-06-04T02:27:55.352Z,59.80
2017-06-04T02:30:23.549Z,56.50
2017-06-04T02:32:52.121Z,52.87
2017-06-04T02:35:20.316Z,54.03
2017-06-04T02:37:48.504Z,57.80
2017-06-04T02:40:16.726Z,57.87
2017-06-04T02:42:44.933Z,60.53
2017-06-04T02:45:14.306Z,62.23
2017-06-04T02:47:42.532Z,68.97
2017-06-04T02:50:10.727Z,69.60
2017-06-04T02:52:38.935Z,70.37
2017-06-04T02:55:07.303Z,76.37
2017-06-04T02:57:35.521Z,70.20
2017-06-04T03:00:03.805Z,70.77
2017-06-04T03:02:32.389Z,73.67
2017-06-04T03:05:00.636Z,67.87
2017-06-04T03:07:28.834Z,71.93
2017-06-04T03:09:57.052Z,64.40
2017-06-04T03:12:25.248Z,65.20
2017-06-04T03:14:53.799Z,61.07
2017-06-04T03:17:22.001Z,65.30
2017-06-04T03:19:50.180Z,67.27
2017-06-04T03:22:18.375Z,67.17
2017-06-04T03:24:46.628Z,70.03
2017-06-04T03:27:15.999Z,69.23
2017-06-04T03:29:44.197Z,68.93
2017-06-04T03:32:13.044Z,60.33
2017-06-04T03:34:42.063Z,53.40
2017-06-04T03:37:10.247Z,49.80
2017-06-04T03:39:38.815Z,49.60
2017-06-04T03:42:07.095Z,48.07
2017-06-04T03:44:35.316Z,49.90
2017-06-04T03:47:03.565Z,50.37
2017-06-04T03:49:32.927Z,50.53
2017-06-04T03:52:01.516Z,52.10
2017-06-04T03:54:29.755Z,47.30
2017-06-04T03:56:57.935Z,49.57
2017-06-04T03:59:26.137Z,50.13
2017-06-04T04:01:54.361Z,48.87
2017-06-04T04:04:22.902Z,48.33
2017-06-04T04:06:51.095Z,47.43
2017-06-04T04:09:20.067Z,38.93
2017-06-04T04:11:48.291Z,40.27
2017-06-04T04:14:16.467Z,36.47
2017-06-04T04:16:45.111Z,34.20
2017-06-04T04:19:13.283Z,33.90
2017-06-04T04:21:41.452Z,29.03
2017-06-04T04:24:09.684Z,30.83
2017-06-04T04:26:37.876Z,30.70
2017-06-04T04:29:06.466Z,29.87
2017-06-04T04:31:34.679Z,33.50
2017-06-04T04:34:03.666Z,35.90
2017-06-04T04:36:32.652Z,35.50
2017-06-04T04:39:00.857Z,38.03
2017-06-04T04:41:29.458Z,40.70
2017-06-04T04:43:57.672Z,40.03
2017-06-04T04:46:25.859Z,43.97
2017-06-04T04:48:54.841Z,48.43
2017-06-04T04:51:23.027Z,48.80
2017-06-04T04:53:51.579Z,47.87
2017-06-04T04:56:19.782Z,53.90
2017-06-04T04:58:48.058Z,51.40
2017-06-04T05:01:16.323Z,50.90
2017-06-04T05:03:44.534Z,45.80
2017-06-04T05:06:13.258Z,46.80
2017-06-04T05:08:41.466Z,55.83
2017-06-04T05:11:09.684Z,53.90
2017-06-04T05:13:37.932Z,52.53
2017-06-04T05:16:06.081Z,53.57
2017-06-04T05:18:35.548Z,61.43
2017-06-04T05:21:03.737Z,55.13
2017-06-04T05:23:31.928Z,53.37
2017-06-04T05:26:07.382Z,52.43
2017-06-04T05:28:41.666Z,48.90
2017-06-04T05:31:09.867Z,43.23
2017-06-04T05:33:38.819Z,39.87
2017-06-04T05:36:07.383Z,42.40
2017-06-04T05:38:35.571Z,38.20
2017-06-04T05:41:03.744Z,30.83
2017-06-04T05:43:31.934Z,31.30
2017-06-04T05:46:00.115Z,29.60
2017-06-04T05:48:28.310Z,29.30
2017-06-04T05:50:56.707Z,28.73
2017-06-04T05:53:24.895Z,39.60
2017-06-04T05:55:53.519Z,32.03
2017-06-04T05:58:21.753Z,31.47
2017-06-04T06:00:49.981Z,29.90
2017-06-04T06:03:18.199Z,30.37
2017-06-04T06:05:46.463Z,29.03
2017-06-04T06:08:15.093Z,26.07
2017-06-04T06:10:43.278Z,29.03
2017-06-04T06:13:11.538Z,28.90
2017-06-04T06:15:39.747Z,33.80
2017-06-04T06:18:07.913Z,31.03
2017-06-04T06:20:36.481Z,29.40
2017-06-04T06:23:04.707Z,35.27
2017-06-04T06:25:32.930Z,34.13
2017-06-04T06:28:01.130Z,37.10
2017-06-04T06:30:30.088Z,35.83
2017-06-04T06:32:58.638Z,34.13
2017-06-04T06:35:26.849Z,38.33
2017-06-04T06:37:55.037Z,47.93
2017-06-04T06:40:24.042Z,34.27
2017-06-04T06:42:52.294Z,39.87
2017-06-04T06:45:20.882Z,32.63
2017-06-04T06:47:49.230Z,33.77
2017-06-04T06:50:17.427Z,31.80
2017-06-04T06:52:46.466Z,29.47
2017-06-04T06:55:14.639Z,28.23
2017-06-04T06:57:43.480Z,26.80
2017-06-04T07:00:11.665Z,30.03
2017-06-04T07:02:39.866Z,32.07
2017-06-04T07:05:08.094Z,28.00
2017-06-04T07:07:36.295Z,37.97
2017-06-04T07:10:05.045Z,31.40
2017-06-04T07:12:33.258Z,30.10
2017-06-04T07:15:01.569Z,31.13
2017-06-04T07:17:29.800Z,30.07
2017-06-04T07:19:58.024Z,28.83
2017-06-04T07:22:26.646Z,27.17
2017-06-04T07:24:54.851Z,29.60
2017-06-04T07:27:23.071Z,26.63
2017-06-04T07:29:51.747Z,23.57
2017-06-04T07:32:19.937Z,25.33
2017-06-04T07:34:48.720Z,27.07
2017-06-04T07:37:16.912Z,37.90
2017-06-04T07:39:45.882Z,27.63
2017-06-04T07:42:14.103Z,29.17
2017-06-04T07:44:42.324Z,27.23
2017-06-04T07:47:10.923Z,26.43
2017-06-04T07:49:39.147Z,35.20
2017-06-04T07:52:07.371Z,25.00
2017-06-04T07:54:35.576Z,28.70
2017-06-04T07:57:03.802Z,28.73
2017-06-04T07:59:32.373Z,31.77
2017-06-04T08:02:00.568Z,28.30
2017-06-04T08:04:28.867Z,28.10
2017-06-04T08:06:57.127Z,29.40
2017-06-04T08:09:25.306Z,27.83
2017-06-04T08:11:53.971Z,26.20
2017-06-04T08:14:22.207Z,22.50
2017-06-04T08:16:50.377Z,26.27
2017-06-04T08:19:18.593Z,31.87
2017-06-04T08:21:46.824Z,24.27
2017-06-04T08:24:15.371Z,26.43
2017-06-04T08:26:43.572Z,26.90
2017-06-04T08:29:11.779Z,24.60
2017-06-04T08:31:40.024Z,21.40
2017-06-04T08:34:08.224Z,22.17
2017-06-04T08:36:36.905Z,19.07
2017-06-04T08:39:05.113Z,14.50
2017-06-04T08:41:33.350Z,15.53
2017-06-04T08:44:01.590Z,16.23
2017-06-04T08:46:29.786Z,18.30
2017-06-04T08:48:58.346Z,16.70
2017-06-04T08:51:26.538Z,16.10
2017-06-04T08:53:54.752Z,16.97
2017-06-04T08:56:22.975Z,15.80
2017-06-04T08:58:51.155Z,20.30
2017-06-04T09:01:19.903Z,18.20
2017-06-04T09:03:48.159Z,21.90
2017-06-04T09:06:16.411Z,21.00
2017-06-04T09:08:45.037Z,25.57
2017-06-04T09:11:13.256Z,32.03
2017-06-04T09:13:41.471Z,37.13
2017-06-04T09:16:09.678Z,28.37
2017-06-04T09:18:38.638Z,27.13
2017-06-04T09:21:07.222Z,34.13
2017-06-04T09:23:36.210Z,40.60
2017-06-04T09:26:04.467Z,33.93
2017-06-04T09:28:32.681Z,34.70
2017-06-04T09:31:00.890Z,32.37
2017-06-04T09:33:29.463Z,37.20
2017-06-04T09:35:57.664Z,24.03
2017-06-04T09:38:25.870Z,24.63
2017-06-04T09:40:54.106Z,26.57
2017-06-04T09:43:22.333Z,23.23
2017-06-04T09:45:50.916Z,23.80
2017-06-04T09:48:19.129Z,25.90
2017-06-04T09:50:47.435Z,20.10
2017-06-04T09:53:15.656Z,21.17
2017-06-04T09:55:43.883Z,18.10
2017-06-04T09:58:12.442Z,19.60
2017-06-04T10:00:40.616Z,16.10
2017-06-04T10:03:08.806Z,13.07
2017-06-04T10:05:37.011Z,11.07
2017-06-04T10:08:05.228Z,11.33
2017-06-04T10:10:33.824Z,10.10
2017-06-04T10:13:02.030Z,9.10
2017-06-04T10:15:30.256Z,8.43
2017-06-04T10:17:58.459Z,7.67
2017-06-04T10:20:26.707Z,7.97
2017-06-04T10:22:55.346Z,13.30
2017-06-04T10:25:23.538Z,8.53
2017-06-04T10:27:51.767Z,6.27
2017-06-04T10:30:19.975Z,9.17
2017-06-04T10:32:48.951Z,5.97
2017-06-04T10:35:17.589Z,8.93
2017-06-04T10:37:45.806Z,5.47
2017-06-04T10:40:14.022Z,8.70
2017-06-04T10:42:42.295Z,6.03
2017-06-04T10:45:10.507Z,9.70
2017-06-04T10:47:39.096Z,6.90
2017-06-04T10:50:07.303Z,7.43
2017-06-04T10:52:36.273Z,8.33
2017-06-04T10:55:04.536Z,8.70
2017-06-04T10:57:32.753Z,5.90
2017-06-04T11:00:02.268Z,7.03
2017-06-04T11:02:30.477Z,5.93
2017-06-04T11:04:58.695Z,5.93
2017-06-04T11:07:27.813Z,7.53
2017-06-04T11:09:56.010Z,7.93
2017-06-04T11:12:24.667Z,13.20
2017-06-04T11:14:52.866Z,4.73
2017-06-04T11:17:21.109Z,5.63
2017-06-04T11:19:49.357Z,4.97
2017-06-04T11:22:17.562Z,4.53
2017-06-04T11:24:47.047Z,3.20
2017-06-04T11:27:15.257Z,3.27
2017-06-04T11:29:43.459Z,4.00
2017-06-04T11:32:11.750Z,6.13
2017-06-04T11:34:39.972Z,5.63
2017-06-04T11:37:08.540Z,4.20
2017-06-04T11:39:37.505Z,4.20
2017-06-04T11:42:05.713Z,3.30
2017-06-04T11:44:34.019Z,4.20
2017-06-04T11:47:02.302Z,3.10
2017-06-04T11:49:30.956Z,2.27
2017-06-04T11:51:59.222Z,6.97
2017-06-04T11:54:28.214Z,3.20
2017-06-04T11:56:57.207Z,3.47
2017-06-04T11:59:25.477Z,6.83
2017-06-04T12:01:54.043Z,5.40
2017-06-04T12:04:22.222Z,3.83
2017-06-04T12:06:51.185Z,2.53
2017-06-04T12:09:19.411Z,5.37
2017-06-04T12:11:47.630Z,4.70
2017-06-04T12:14:16.234Z,3.57
2017-06-04T12:16:44.465Z,1.73
2017-06-04T12:19:12.650Z,5.07
2017-06-04T12:21:40.848Z,1.73
2017-06-04T12:24:09.145Z,6.20
2017-06-04T12:26:38.129Z,12.93
2017-06-04T12:29:07.192Z,9.90
2017-06-04T12:31:35.472Z,6.23
2017-06-04T12:34:03.711Z,8.00
2017-06-04T12:36:32.006Z,4.37
2017-06-04T12:39:00.607Z,2.33
2017-06-04T12:41:28.831Z,4.50
2017-06-04T12:43:56.990Z,7.20
2017-06-04T12:46:25.180Z,5.20
2017-06-04T12:48:53.353Z,2.77
2017-06-04T12:51:21.980Z,7.70
2017-06-04T12:53:50.253Z,2.07
2017-06-04T12:56:18.481Z,6.57
2017-06-04T12:58:46.679Z,3.23
2017-06-04T13:01:14.872Z,4.37
2017-06-04T13:03:43.419Z,4.57
2017-06-04T13:06:11.626Z,1.97
2017-06-04T13:08:39.838Z,2.97
2017-06-04T13:11:08.835Z,1.57
2017-06-04T13:13:37.042Z,11.60
2017-06-04T13:16:05.670Z,1.23
2017-06-04T13:18:34.194Z,5.20
2017-06-04T13:21:02.408Z,4.03
2017-06-04T13:23:30.629Z,1.57
2017-06-04T13:25:58.889Z,1.63
2017-06-04T13:28:27.621Z,5.63
2017-06-04T13:30:55.795Z,4.00
2017-06-04T13:33:23.971Z,3.40
2017-06-04T13:35:52.271Z,1.90
2017-06-04T13:38:20.482Z,5.20
2017-06-04T13:40:49.441Z,3.90
2017-06-04T13:43:17.676Z,4.27
2017-06-04T13:45:45.858Z,10.23
2017-06-04T13:48:14.061Z,3.63
2017-06-04T13:50:42.280Z,3.97
2017-06-04T13:53:11.031Z,2.60
2017-06-04T13:55:39.202Z,2.37
2017-06-04T13:58:07.407Z,2.40
2017-06-04T14:00:35.570Z,4.07
2017-06-04T14:03:04.541Z,2.43
2017-06-04T14:05:33.105Z,10.50
2017-06-04T14:08:01.314Z,5.53
2017-06-04T14:10:30.293Z,3.73
2017-06-04T14:12:58.505Z,4.30
2017-06-04T14:15:26.713Z,4.23
2017-06-04T14:17:56.122Z,4.77
2017-06-04T14:20:24.335Z,4.40
2017-06-04T14:22:53.514Z,4.90
2017-06-04T14:25:21.703Z,7.20
2017-06-04T14:27:50.670Z,2.70
2017-06-04T14:30:19.346Z,6.27
2017-06-04T14:32:47.548Z,5.10
2017-06-04T14:35:16.530Z,3.87
2017-06-04T14:37:44.747Z,9.37
2017-06-04T14:40:12.928Z,4.73
2017-06-04T14:42:41.556Z,4.80
2017-06-04T14:45:09.731Z,6.20
2017-06-04T14:47:37.934Z,4.17
2017-06-04T14:50:06.137Z,6.10
2017-06-04T14:52:34.317Z,5.40
2017-06-04T14:55:03.024Z,3.13
2017-06-04T14:57:31.233Z,6.53
2017-06-04T14:59:59.451Z,3.03
2017-06-04T15:02:27.646Z,4.03
2017-06-04T15:04:55.823Z,7.70
2017-06-04T15:07:24.341Z,7.93
2017-06-04T15:09:52.531Z,3.47
2017-06-04T15:12:20.706Z,3.10
2017-06-04T15:14:48.929Z,3.83
2017-06-04T15:17:17.126Z,7.27
2017-06-04T15:19:45.778Z,3.93
2017-06-04T15:22:13.951Z,5.60
2017-06-04T15:24:42.150Z,6.00
2017-06-04T15:27:11.133Z,9.17
2017-06-04T15:29:39.324Z,4.80
2017-06-04T15:32:07.971Z,4.40
2017-06-04T15:34:36.163Z,6.03
2017-06-04T15:37:05.116Z,4.07
2017-06-04T15:39:33.998Z,3.90
2017-06-04T15:42:02.189Z,2.70
2017-06-04T15:44:30.381Z,3.07
2017-06-04T15:46:58.576Z,6.90
2017-06-04T15:49:27.555Z,5.63
2017-06-04T15:51:56.977Z,6.03
2017-06-04T15:54:25.189Z,3.33
2017-06-04T15:56:53.389Z,8.20
2017-06-04T15:59:21.583Z,6.80
2017-06-04T16:01:49.877Z,3.70
2017-06-04T16:04:18.428Z,8.00
2017-06-04T16:06:47.461Z,3.43
2017-06-04T16:09:15.751Z,5.70
2017-06-04T16:11:44.024Z,3.10
2017-06-04T16:14:12.217Z,5.60
2017-06-04T16:16:40.801Z,4.27
2017-06-04T16:19:09.032Z,4.97
2017-06-04T16:21:37.225Z,3.80
2017-06-04T16:24:05.465Z,4.50
2017-06-04T16:26:34.430Z,4.00
2017-06-04T16:29:03.016Z,3.20
2017-06-04T16:31:31.205Z,5.23
2017-06-04T16:34:00.194Z,6.63
2017-06-04T16:36:28.387Z,5.70
2017-06-04T16:38:56.634Z,7.97
2017-06-04T16:41:25.241Z,6.63
2017-06-04T16:43:53.423Z,3.70
2017-06-04T16:46:21.858Z,4.23
2017-06-04T16:48:50.088Z,2.83
2017-06-04T16:51:18.307Z,3.43
2017-06-04T16:53:46.899Z,5.83
2017-06-04T16:56:15.145Z,4.17
2017-06-04T16:58:43.375Z,4.70
2017-06-04T17:01:11.606Z,8.73
2017-06-04T17:03:39.818Z,2.83
2017-06-04T17:06:08.356Z,4.97
2017-06-04T17:08:36.613Z,3.83
2017-06-04T17:11:04.857Z,4.03
2017-06-04T17:13:33.075Z,6.70
2017-06-04T17:16:01.282Z,6.60
2017-06-04T17:18:29.843Z,13.73
2017-06-04T17:20:58.017Z,4.50
2017-06-04T17:23:27.013Z,6.20
2017-06-04T17:25:55.271Z,6.63
2017-06-04T17:28:23.523Z,6.40
2017-06-04T17:30:52.139Z,3.93
2017-06-04T17:33:20.331Z,7.83
2017-06-04T17:35:48.514Z,3.77
2017-06-04T17:38:16.837Z,7.07
2017-06-04T17:40:45.063Z,2.90
2017-06-04T17:43:14.430Z,3.93
2017-06-04T17:45:42.651Z,8.93
2017-06-04T17:48:11.626Z,4.90
2017-06-04T17:50:39.889Z,4.57
2017-06-04T17:53:08.093Z,2.23
2017-06-04T17:55:36.650Z,4.43
2017-06-04T17:58:05.662Z,6.90
2017-06-04T18:00:34.627Z,3.50
2017-06-04T18:03:02.831Z,6.37
2017-06-04T18:05:31.815Z,4.57
2017-06-04T18:08:01.140Z,3.93
2017-06-04T18:10:29.320Z,3.83
2017-06-04T18:12:57.521Z,7.43
2017-06-04T18:15:25.732Z,5.70
2017-06-04T18:17:54.698Z,5.73
2017-06-04T18:20:23.288Z,2.13
2017-06-04T18:22:51.472Z,3.40
2017-06-04T18:25:19.668Z,8.97
2017-06-04T18:27:47.888Z,3.60
2017-06-04T18:30:16.102Z,13.20
2017-06-04T18:32:44.777Z,6.50
2017-06-04T18:35:12.950Z,5.13
2017-06-04T18:37:41.142Z,6.63
2017-06-04T18:40:10.155Z,10.63
2017-06-04T18:42:38.340Z,7.07
2017-06-04T18:45:06.571Z,7.00
2017-06-04T18:47:35.596Z,5.23
2017-06-04T18:50:03.803Z,4.57
2017-06-04T18:52:32.395Z,4.73
2017-06-04T18:55:00.631Z,4.90
2017-06-04T18:57:28.831Z,5.47
2017-06-04T18:59:57.047Z,4.60
2017-06-04T19:02:26.020Z,4.93
2017-06-04T19:04:54.594Z,6.00
2017-06-04T19:07:22.848Z,7.10
2017-06-04T19:09:51.043Z,6.20
2017-06-04T19:12:19.275Z,5.13
2017-06-04T19:14:47.520Z,6.70
2017-06-04T19:17:16.908Z,8.80
2017-06-04T19:19:45.121Z,6.10
2017-06-04T19:22:13.340Z,7.07
2017-06-04T19:24:41.560Z,3.90
2017-06-04T19:27:09.767Z,3.50
2017-06-04T19:29:38.410Z,3.27
2017-06-04T19:32:06.628Z,8.80
2017-06-04T19:34:34.835Z,8.50
2017-06-04T19:37:03.051Z,5.70
2017-06-04T19:39:31.242Z,10.63
2017-06-04T19:41:59.829Z,2.90
2017-06-04T19:44:28.057Z,2.17
2017-06-04T19:46:56.263Z,4.87
2017-06-04T19:49:24.487Z,4.87
2017-06-04T19:51:52.714Z,9.03
2017-06-04T19:54:21.286Z,5.30
2017-06-04T19:56:49.534Z,6.17
2017-06-04T19:59:18.019Z,3.07
2017-06-04T20:01:46.241Z,4.17
2017-06-04T20:04:14.474Z,6.43
2017-06-04T20:06:43.046Z,2.97
2017-06-04T20:09:11.315Z,3.90
2017-06-04T20:11:40.376Z,5.87
2017-06-04T20:14:08.661Z,3.87
2017-06-04T20:16:36.863Z,2.60
2017-06-04T20:19:06.375Z,9.43
2017-06-04T20:21:34.571Z,5.63
2017-06-04T20:24:02.876Z,5.90
2017-06-04T20:26:31.168Z,3.67
2017-06-04T20:28:59.380Z,9.03
2017-06-04T20:31:28.006Z,6.97
2017-06-04T20:33:56.204Z,10.63
2017-06-04T20:36:24.388Z,4.80
2017-06-04T20:38:52.589Z,4.97
2017-06-04T20:41:20.805Z,6.10
2017-06-04T20:43:49.380Z,5.83
2017-06-04T20:46:17.584Z,8.87
2017-06-04T20:48:46.615Z,4.03
2017-06-04T20:51:14.889Z,12.93
2017-06-04T20:53:43.138Z,4.93
2017-06-04T20:56:11.814Z,7.40
2017-06-04T20:58:40.844Z,4.90
2017-06-04T21:01:09.261Z,4.97
2017-06-04T21:03:37.490Z,8.10
2017-06-04T21:06:05.789Z,9.40
2017-06-04T21:08:34.388Z,8.90
2017-06-04T21:11:02.626Z,8.80
2017-06-04T21:13:30.839Z,4.20
2017-06-04T21:15:59.139Z,8.53
2017-06-04T21:18:27.357Z,6.60
2017-06-04T21:20:55.959Z,7.80
2017-06-04T21:23:24.249Z,10.43
2017-06-04T21:25:52.473Z,5.97
2017-06-04T21:28:20.698Z,12.87
2017-06-04T21:30:48.909Z,9.63
2017-06-04T21:33:18.308Z,10.90
2017-06-04T21:35:46.542Z,2.97
2017-06-04T21:38:14.751Z,6.40
2017-06-04T21:40:43.035Z,7.97
2017-06-04T21:43:11.239Z,8.47
2017-06-04T21:45:39.784Z,7.67
2017-06-04T21:48:08.736Z,7.20
2017-06-04T21:50:36.981Z,6.60
2017-06-04T21:53:05.727Z,16.20
2017-06-04T21:55:34.682Z,4.20
2017-06-04T21:58:02.880Z,5.13
2017-06-04T22:00:31.093Z,4.37
2017-06-04T22:02:59.313Z,5.03
2017-06-04T22:05:28.017Z,11.80
2017-06-04T22:07:56.218Z,4.50
2017-06-04T22:10:24.430Z,8.20
2017-06-04T22:12:52.628Z,5.40
2017-06-04T22:15:20.798Z,5.87
2017-06-04T22:17:49.325Z,9.83
2017-06-04T22:20:17.498Z,6.97
2017-06-04T22:22:45.673Z,6.53
2017-06-04T22:25:13.869Z,3.90
2017-06-04T22:27:42.075Z,3.00
2017-06-04T22:30:10.678Z,5.93
2017-06-04T22:32:38.871Z,5.20
2017-06-04T22:35:07.094Z,5.90
2017-06-04T22:37:35.309Z,11.07
2017-06-04T22:40:04.285Z,10.70
2017-06-04T22:42:33.644Z,8.00
2017-06-04T22:45:01.827Z,5.67
2017-06-04T22:47:30.060Z,12.33
2017-06-04T22:49:58.282Z,6.53
2017-06-04T22:52:26.497Z,5.17
2017-06-04T22:54:56.029Z,5.13
2017-06-04T22:57:24.250Z,5.13
2017-06-04T22:59:52.483Z,5.80
2017-06-04T23:02:20.722Z,7.97
2017-06-04T23:04:49.739Z,7.07
2017-06-04T23:07:18.380Z,8.07
2017-06-04T23:09:46.581Z,5.23
2017-06-04T23:12:15.534Z,8.80
2017-06-04T23:14:43.769Z,7.43
2017-06-04T23:17:12.042Z,6.83
2017-06-04T23:19:40.683Z,6.93
2017-06-04T23:22:09.689Z,7.90
2017-06-04T23:24:38.663Z,11.33
2017-06-04T23:27:06.881Z,10.77
2017-06-04T23:29:35.080Z,15.13
2017-06-04T23:32:03.623Z,9.60
2017-06-04T23:34:31.863Z,7.30
2017-06-04T23:37:00.072Z,8.17
2017-06-04T23:39:28.283Z,6.87
2017-06-04T23:41:56.482Z,11.17
2017-06-04T23:44:25.033Z,11.30
2017-06-04T23:46:53.258Z,10.77
2017-06-04T23:49:21.452Z,10.00
2017-06-04T23:51:49.652Z,10.67
2017-06-04T23:54:18.190Z,10.53
2017-06-04T23:56:46.804Z,11.93
2017-06-04T23:59:15.016Z,11.67
